Main page
METAR-TAF:

METAR-TAF

Airports :

Ohrid "St. Paul the Apostle" Airport

Ohrid, Macedonia

latitude: 41-07N, longitude: 020-48E, elevation: 760 m

Current weather observation

The report was made 10 hours and 57 minutes ago, at 15:00 UTC
Wind 3 kt from the Northeast
Temperature 12°C
Humidity 24%
Pressure 1024 hPa
Visibility 10 km or more
Scattered clouds at a height of 4000 ft
Scattered clouds at a height of 9000 ft

METAR: LWOH 061500Z 05003KT 9999 SCT040 SCT090 12/M08 Q1024

Time: 03:57 (01:57 UTC)

Forecast

The report was made 2 hours and 27 minutes ago, at 23:30 UTC
Forecast valid from 07 at 00 UTC to 07 at 24 UTC
Wind 10 kt from the East/Northeast
Visibility 10 km or more
Scattered clouds at a height of 4000 ft

TAF: LWOH 062330Z 0700/0724 06010KT 9999 SCT040

Weather observations and forecasts of more than 4000 airports (METAR and TAF reports).

The available stations are represented by yellow and red dots on the map.

Hover mouse over dot to see the name of the station.

Then click to see weather observations and forecasts.

To change the map : click on the green buttons with a black cross to zoom in, on the green button with a dash to zoom out, or on the green arrows for adjacent maps.


METAR-TAF: